Leeds, Alabama
Current Conditions -  °F | °C
As of 11:53 AM on Sunday 21 Dec 2014 (Local Time) from KBHM Reporting Station
Broken Clouds Broken Clouds  
Wind Chill: 53°   Ceiling: 25000
Heat Index: 53°   Visibility: 10mi
Dew Point: 43°   Wind: 5mph
Humidity: 69%   Direction: 90°E
Pressure: 30.13"   Gusts: NA
Location:  33.54°N, 86.54°W
Report Text: KBHM 211753Z 09004KT 10SM BKN250 12/06 A3013 RMK AO2 SLP203 T01170061 10122 20044 58021
Loading
Personal Weather Stations






























Interactive Weather Map New forecast layout! Learn more

10-Day Weather Forecast

Advertisements
Track Severe Weather on mobile